Time;durP1;ratioP1;P1;durP2;ratioP2;P2;SDS_P1;SDS_P2;PMS_P1;PMS_P2;Temp;Humidity;BMP_temperature;BMP_pressure;BME280_temperature;BME280_humidity;BME280_pressure;Samples;Min_cycle;Max_cycle;Signal;HPM_P1;HPM_P2
2021/12/31 00:00:55;;;;;;;1999.90;999.90;;;14.50;99.90;;;;;;5013140;28;20511;-74
2021/12/31 00:03:22;;;;;;;1999.90;999.90;;;14.50;99.90;;;;;;5012520;28;20546;-74
2021/12/31 00:05:48;;;;;;;1999.90;999.90;;;14.50;99.90;;;;;;5013334;28;20452;-73
2021/12/31 00:08:15;;;;;;;1999.90;999.90;;;14.50;99.90;;;;;;5013283;28;20807;-73
2021/12/31 00:10:43;;;;;;;1999.90;999.90;;;14.50;99.90;;;;;;5013364;28;20452;-75
2021/12/31 00:13:11;;;;;;;1999.90;999.90;;;14.40;99.90;;;;;;5013051;28;20530;-73
2021/12/31 00:15:37;;;;;;;1999.90;999.90;;;14.50;99.90;;;;;;5013402;28;21073;-73
2021/12/31 00:18:04;;;;;;;1999.90;999.90;;;14.40;99.90;;;;;;5012933;28;20522;-74
2021/12/31 00:20:32;;;;;;;1999.90;999.90;;;14.50;99.90;;;;;;5012895;28;20448;-73
2021/12/31 00:23:04;;;;;;;1999.90;999.90;;;14.50;99.90;;;;;;5013806;28;20476;-74
2021/12/31 00:25:31;;;;;;;1999.90;999.90;;;14.50;99.90;;;;;;5013548;28;20452;-73
2021/12/31 00:27:57;;;;;;;1999.90;999.90;;;14.50;99.90;;;;;;5013545;28;20448;-74
2021/12/31 00:30:26;;;;;;;1999.90;999.90;;;14.50;99.90;;;;;;5012534;28;20464;-73
2021/12/31 00:32:53;;;;;;;1999.90;999.90;;;14.40;99.90;;;;;;5013084;28;20510;-72
2021/12/31 00:35:20;;;;;;;1999.90;999.90;;;14.50;99.90;;;;;;5012904;28;20511;-74
2021/12/31 00:37:46;;;;;;;1999.90;999.90;;;14.50;99.90;;;;;;5013415;28;20448;-74
2021/12/31 00:40:16;;;;;;;1999.90;999.90;;;14.50;99.90;;;;;;5012852;28;20530;-73
2021/12/31 00:42:43;;;;;;;1999.90;999.90;;;14.50;99.90;;;;;;5013368;28;20452;-74
2021/12/31 00:45:12;;;;;;;1999.90;999.90;;;14.50;99.90;;;;;;5013145;28;20822;-72
2021/12/31 00:47:41;;;;;;;1999.90;999.90;;;14.50;99.90;;;;;;5012668;28;20448;-73
2021/12/31 00:50:09;;;;;;;1999.90;999.90;;;14.40;99.90;;;;;;5012423;28;20440;-74
2021/12/31 00:52:39;;;;;;;1999.90;999.90;;;14.40;99.90;;;;;;5012803;28;20448;-72
2021/12/31 00:55:08;;;;;;;1999.90;999.90;;;14.40;99.90;;;;;;5012775;28;20453;-73
2021/12/31 00:57:35;;;;;;;1999.90;999.90;;;14.40;99.90;;;;;;5013025;28;20452;-73
2021/12/31 01:00:01;;;;;;;1999.90;999.90;;;14.50;99.90;;;;;;5012420;28;20480;-71
2021/12/31 01:02:29;;;;;;;1999.90;999.90;;;14.40;99.90;;;;;;5012095;28;20452;-74
2021/12/31 01:04:57;;;;;;;1999.90;999.90;;;14.40;99.90;;;;;;5012611;28;20467;-73
2021/12/31 01:07:24;;;;;;;1999.90;999.90;;;14.40;99.90;;;;;;5013980;28;20551;-74
2021/12/31 01:09:50;;;;;;;1999.90;999.90;;;14.30;99.90;;;;;;5012250;28;20513;-73
2021/12/31 01:12:17;;;;;;;1999.90;999.90;;;14.40;99.90;;;;;;5011967;28;20460;-71
2021/12/31 01:14:54;;;;;;;1999.90;999.90;;;14.40;99.90;;;;;;5011681;28;20526;-73
2021/12/31 01:17:35;;;;;;;1999.90;999.90;;;14.30;99.90;;;;;;5012281;28;20619;-73
2021/12/31 01:20:04;;;;;;;1999.90;999.90;;;14.30;99.90;;;;;;5011653;28;20537;-74
2021/12/31 01:22:32;;;;;;;1999.90;999.90;;;14.20;99.90;;;;;;5012354;28;20502;-73
2021/12/31 01:24:59;;;;;;;1999.90;999.90;;;14.20;99.90;;;;;;5011793;28;20468;-74
2021/12/31 01:27:26;;;;;;;1999.90;999.90;;;14.20;99.90;;;;;;5011435;28;20883;-73
2021/12/31 01:29:53;;;;;;;1999.90;999.90;;;14.30;99.90;;;;;;5008536;28;20500;-72
2021/12/31 01:32:20;;;;;;;1999.90;999.90;;;14.30;99.90;;;;;;5008945;28;20456;-73
2021/12/31 01:34:46;;;;;;;1999.90;999.90;;;14.30;99.90;;;;;;5011607;28;20476;-73
2021/12/31 01:37:14;;;;;;;1999.90;999.90;;;14.30;99.90;;;;;;5012106;28;20448;-74
2021/12/31 01:39:42;;;;;;;1999.90;999.90;;;14.30;99.90;;;;;;5011480;28;20480;-74
2021/12/31 01:42:11;;;;;;;1999.90;999.90;;;14.30;99.90;;;;;;5011824;28;20526;-73
2021/12/31 01:44:41;;;;;;;1999.90;999.90;;;14.40;99.90;;;;;;5011922;28;20560;-74
2021/12/31 01:47:12;;;;;;;1999.90;999.90;;;14.40;99.90;;;;;;5011431;28;20503;-73
2021/12/31 01:49:41;;;;;;;1999.90;999.90;;;14.40;99.90;;;;;;5012160;28;20441;-73
2021/12/31 01:52:10;;;;;;;1999.90;999.90;;;14.40;99.90;;;;;;5011624;28;20491;-72
2021/12/31 01:54:39;;;;;;;1999.90;999.90;;;14.30;99.90;;;;;;5011711;28;20522;-74
2021/12/31 01:57:09;;;;;;;1999.90;999.90;;;14.30;99.90;;;;;;5011164;28;20456;-73
2021/12/31 01:59:38;;;;;;;1999.90;999.90;;;14.30;99.90;;;;;;5010616;28;20554;-74
2021/12/31 02:02:07;;;;;;;1999.90;999.90;;;14.30;99.90;;;;;;5011391;28;20457;-74
2021/12/31 02:04:34;;;;;;;1999.90;999.90;;;14.20;99.90;;;;;;5011490;28;20518;-72
2021/12/31 02:07:01;;;;;;;1999.90;999.90;;;14.30;99.90;;;;;;5012266;28;20506;-73
2021/12/31 02:09:30;;;;;;;1999.90;999.90;;;14.20;99.90;;;;;;5006944;28;21018;-73
2021/12/31 02:11:59;;;;;;;1999.90;999.90;;;14.20;99.90;;;;;;5011752;28;20959;-73
2021/12/31 02:14:25;;;;;;;1999.90;999.90;;;14.20;99.90;;;;;;5012091;28;20471;-73
2021/12/31 02:16:52;;;;;;;1999.90;999.90;;;14.10;99.90;;;;;;5012411;28;20498;-73
2021/12/31 02:19:27;;;;;;;1999.90;999.90;;;14.10;99.90;;;;;;5008216;28;20961;-73
2021/12/31 02:21:55;;;;;;;1999.90;999.90;;;14.10;99.90;;;;;;5011645;28;20546;-74
2021/12/31 02:24:22;;;;;;;1999.90;999.90;;;14.20;99.90;;;;;;4996316;28;20527;-74
2021/12/31 02:26:49;;;;;;;1999.90;999.90;;;14.20;99.90;;;;;;5012781;28;20463;-73
2021/12/31 02:29:16;;;;;;;1999.90;999.90;;;14.20;99.90;;;;;;5015413;28;20463;-70
2021/12/31 02:31:43;;;;;;;1999.90;999.90;;;14.20;99.90;;;;;;5015545;28;20452;-73
2021/12/31 02:34:09;;;;;;;1999.90;999.90;;;14.20;99.90;;;;;;5015394;28;20534;-74
2021/12/31 02:36:36;;;;;;;1999.90;999.90;;;14.20;99.90;;;;;;5015357;28;20456;-73
2021/12/31 02:39:04;;;;;;;1999.90;999.90;;;14.20;99.90;;;;;;5015853;28;20452;-73
2021/12/31 02:41:31;;;;;;;1999.90;999.90;;;14.20;99.90;;;;;;5014960;28;20444;-74
2021/12/31 02:43:58;;;;;;;1999.90;999.90;;;14.20;99.90;;;;;;5014841;28;20522;-74
2021/12/31 02:46:24;;;;;;;1999.90;999.90;;;14.20;99.90;;;;;;5015308;28;20859;-73
2021/12/31 02:48:57;;;;;;;1999.90;999.90;;;14.10;99.90;;;;;;5015444;28;20448;-74
2021/12/31 02:51:24;;;;;;;1999.90;999.90;;;14.10;99.90;;;;;;5014854;28;20462;-73
2021/12/31 02:53:53;;;;;;;1999.90;999.90;;;14.10;99.90;;;;;;5015604;28;20479;-73
2021/12/31 02:56:22;;;;;;;1999.90;999.90;;;14.20;99.90;;;;;;5015529;28;20444;-73
2021/12/31 02:58:49;;;;;;;1999.90;999.90;;;14.20;99.90;;;;;;5014553;28;20803;-74
2021/12/31 03:01:16;;;;;;;1999.90;999.90;;;14.20;99.90;;;;;;5015193;28;20537;-73
2021/12/31 03:03:43;;;;;;;1999.90;999.90;;;14.20;99.90;;;;;;5014916;28;20468;-73
2021/12/31 03:06:11;;;;;;;1999.90;999.90;;;14.20;99.90;;;;;;5012601;28;20452;-74
2021/12/31 03:08:41;;;;;;;1999.90;999.90;;;14.10;99.90;;;;;;5011947;28;20455;-74
2021/12/31 03:11:09;;;;;;;1999.90;999.90;;;14.10;99.90;;;;;;5014039;28;20452;-74
2021/12/31 03:13:38;;;;;;;1999.90;999.90;;;14.10;99.90;;;;;;5014008;28;20480;-73
2021/12/31 03:16:07;;;;;;;1999.90;999.90;;;14.10;99.90;;;;;;5013354;28;20534;-73
2021/12/31 03:18:34;;;;;;;1999.90;999.90;;;14.10;99.90;;;;;;5014672;28;20478;-74
2021/12/31 03:21:06;;;;;;;1999.90;999.90;;;14.10;99.90;;;;;;5014742;28;20483;-72
2021/12/31 03:23:33;;;;;;;1999.90;999.90;;;14.10;99.90;;;;;;5014786;28;20546;-74
2021/12/31 03:26:00;;;;;;;1999.90;999.90;;;14.10;99.90;;;;;;5014957;28;20452;-72
2021/12/31 03:28:27;;;;;;;1999.90;999.90;;;14.10;99.90;;;;;;5014163;28;21213;-73
2021/12/31 03:30:56;;;;;;;1999.90;999.90;;;14.10;99.90;;;;;;5014148;28;20453;-73
2021/12/31 03:33:23;;;;;;;1999.90;999.90;;;14.10;99.90;;;;;;5014324;28;20480;-73
2021/12/31 03:35:50;;;;;;;1999.90;999.90;;;14.00;99.90;;;;;;5014670;28;20456;-73
2021/12/31 03:38:17;;;;;;;1999.90;999.90;;;14.10;99.90;;;;;;5013950;28;20506;-74
2021/12/31 03:40:46;;;;;;;1999.90;999.90;;;14.00;99.90;;;;;;5013896;28;20487;-73
2021/12/31 03:43:13;;;;;;;1999.90;999.90;;;14.00;99.90;;;;;;5013990;28;20563;-73
2021/12/31 03:45:40;;;;;;;1999.90;999.90;;;14.00;99.90;;;;;;5014324;28;20447;-73
2021/12/31 03:48:08;;;;;;;1999.90;999.90;;;13.90;99.90;;;;;;5014274;28;20448;-73
2021/12/31 03:50:35;;;;;;;1999.90;999.90;;;13.90;99.90;;;;;;5014311;28;20498;-73
2021/12/31 03:53:01;;;;;;;1999.90;999.90;;;13.90;99.90;;;;;;5013993;28;20468;-74
2021/12/31 03:55:28;;;;;;;1999.90;999.90;;;13.80;99.90;;;;;;5013882;28;20498;-74
2021/12/31 03:57:55;;;;;;;1999.90;999.90;;;13.80;99.90;;;;;;5012906;28;20502;-74
2021/12/31 04:00:21;;;;;;;1999.90;999.90;;;13.80;99.90;;;;;;5013212;28;20484;-73
2021/12/31 04:02:48;;;;;;;1999.90;999.90;;;13.80;99.90;;;;;;5013224;28;21629;-74
2021/12/31 04:05:16;;;;;;;1999.90;999.90;;;13.80;99.90;;;;;;5014242;28;20875;-73
2021/12/31 04:07:43;;;;;;;1999.90;999.90;;;13.70;99.90;;;;;;5013785;28;20998;-74
2021/12/31 04:10:10;;;;;;;1999.90;999.90;;;13.70;99.90;;;;;;5013263;28;20937;-74
2021/12/31 04:12:36;;;;;;;1999.90;999.90;;;13.80;99.90;;;;;;5012948;28;20506;-74
2021/12/31 04:15:03;;;;;;;1999.90;999.90;;;13.80;99.90;;;;;;5013210;28;20478;-72
2021/12/31 04:17:30;;;;;;;1999.90;999.90;;;13.80;99.90;;;;;;5013474;28;20952;-73
2021/12/31 04:19:57;;;;;;;1999.90;999.90;;;13.80;99.90;;;;;;5014004;28;20479;-73
2021/12/31 04:22:28;;;;;;;1999.90;999.90;;;13.80;99.90;;;;;;5013811;28;20463;-73
2021/12/31 04:24:55;;;;;;;1999.90;999.90;;;13.80;99.90;;;;;;5013706;28;20472;-73
2021/12/31 04:27:22;;;;;;;1999.90;999.90;;;13.80;99.90;;;;;;5013822;28;20456;-73
2021/12/31 04:29:52;;;;;;;1999.90;999.90;;;13.90;99.90;;;;;;5013266;28;20444;-74
2021/12/31 04:32:20;;;;;;;1999.90;999.90;;;13.90;99.90;;;;;;5013769;28;20456;-73
2021/12/31 04:34:47;;;;;;;1999.90;999.90;;;13.90;99.90;;;;;;5013408;28;20901;-73
2021/12/31 04:37:14;;;;;;;1999.90;999.90;;;13.90;99.90;;;;;;5013190;28;20451;-73
2021/12/31 04:39:42;;;;;;;1999.90;999.90;;;13.90;99.90;;;;;;5013789;28;20518;-74
2021/12/31 04:42:09;;;;;;;1999.90;999.90;;;13.90;99.90;;;;;;5012983;28;20448;-73
2021/12/31 04:44:36;;;;;;;1999.90;999.90;;;13.90;99.90;;;;;;5012578;28;20532;-74
2021/12/31 04:47:03;;;;;;;1999.90;999.90;;;13.80;99.90;;;;;;5012271;28;20452;-73
2021/12/31 04:49:29;;;;;;;1999.90;999.90;;;13.90;99.90;;;;;;5012755;28;20502;-74
2021/12/31 04:51:56;;;;;;;1999.90;999.90;;;13.80;99.90;;;;;;5012632;28;20452;-74
2021/12/31 04:54:23;;;;;;;1999.90;999.90;;;13.80;99.90;;;;;;5012164;28;21023;-75
2021/12/31 04:56:53;;;;;;;1999.90;999.90;;;13.80;99.90;;;;;;5012387;28;20486;-74
2021/12/31 04:59:20;;;;;;;1999.90;999.90;;;13.90;99.90;;;;;;5012364;28;21152;-73
2021/12/31 05:01:47;;;;;;;1999.90;999.90;;;13.90;99.90;;;;;;5012290;28;20908;-73
2021/12/31 05:04:14;;;;;;;1999.90;999.90;;;13.90;99.90;;;;;;5013127;28;20472;-73
2021/12/31 05:06:41;;;;;;;1999.90;999.90;;;13.90;99.90;;;;;;5010784;28;20452;-73
2021/12/31 05:09:07;;;;;;;1999.90;999.90;;;13.90;99.90;;;;;;5013239;28;20455;-74
2021/12/31 05:11:34;;;;;;;1999.90;999.90;;;13.90;99.90;;;;;;5012550;28;20479;-74
2021/12/31 05:14:03;;;;;;;1999.90;999.90;;;13.90;99.90;;;;;;5012645;28;20807;-73
2021/12/31 05:16:31;;;;;;;1999.90;999.90;;;13.80;99.90;;;;;;5012815;28;20452;-73
2021/12/31 05:18:57;;;;;;;1999.90;999.90;;;13.90;99.90;;;;;;5012722;28;20450;-73
2021/12/31 05:21:24;;;;;;;1999.90;999.90;;;13.90;99.90;;;;;;5009054;28;20488;-74
2021/12/31 05:23:50;;;;;;;1999.90;999.90;;;13.90;99.90;;;;;;5012330;28;20498;-74
2021/12/31 05:26:17;;;;;;;1999.90;999.90;;;13.80;99.90;;;;;;5012654;28;20452;-74
2021/12/31 05:28:44;;;;;;;1999.90;999.90;;;13.80;99.90;;;;;;5012706;28;20460;-73
2021/12/31 05:31:12;;;;;;;1999.90;999.90;;;13.80;99.90;;;;;;5012281;28;20448;-74
2021/12/31 05:33:38;;;;;;;1999.90;999.90;;;13.90;99.90;;;;;;5012758;28;20467;-73
2021/12/31 05:36:05;;;;;;;1999.90;999.90;;;14.00;99.90;;;;;;5010302;28;20492;-71
2021/12/31 05:38:32;;;;;;;1999.90;999.90;;;13.90;99.90;;;;;;5012893;28;20580;-72
2021/12/31 05:40:59;;;;;;;1999.90;999.90;;;13.90;99.90;;;;;;5012120;28;20830;-74
2021/12/31 05:43:25;;;;;;;1999.90;999.90;;;13.90;99.90;;;;;;5012276;28;20476;-74
2021/12/31 05:45:52;;;;;;;1999.90;999.90;;;13.90;99.90;;;;;;5012492;28;20443;-73
2021/12/31 05:48:20;;;;;;;1999.90;999.90;;;14.00;99.90;;;;;;5012847;28;20499;-74
2021/12/31 05:50:46;;;;;;;1999.90;999.90;;;14.00;99.90;;;;;;5010771;28;20456;-74
2021/12/31 05:53:13;;;;;;;1999.90;999.90;;;14.10;99.90;;;;;;5005021;28;20883;-72
2021/12/31 05:55:40;;;;;;;1999.90;999.90;;;14.10;99.90;;;;;;5011045;28;20945;-73
2021/12/31 05:58:06;;;;;;;1999.90;999.90;;;14.10;99.90;;;;;;5012841;28;20506;-74
2021/12/31 06:00:33;;;;;;;1999.90;999.90;;;14.10;99.90;;;;;;5014847;28;20848;-73
2021/12/31 06:03:00;;;;;;;1999.90;999.90;;;14.10;99.90;;;;;;5016672;28;20546;-72
2021/12/31 06:05:28;;;;;;;1999.90;999.90;;;14.10;99.90;;;;;;5016637;28;20510;-74
2021/12/31 06:07:57;;;;;;;1999.90;999.90;;;14.10;99.90;;;;;;5011825;28;20486;-73
2021/12/31 06:10:24;;;;;;;1999.90;999.90;;;14.00;99.90;;;;;;5014956;28;20448;-74
2021/12/31 06:12:51;;;;;;;1999.90;999.90;;;14.00;99.90;;;;;;5015192;28;20474;-74
2021/12/31 06:15:20;;;;;;;1999.90;999.90;;;14.00;99.90;;;;;;5015295;28;20460;-74
2021/12/31 06:17:46;;;;;;;1999.90;999.90;;;13.90;99.90;;;;;;5016158;28;20451;-73
2021/12/31 06:20:13;;;;;;;1999.90;999.90;;;14.00;99.90;;;;;;5014935;28;20515;-74
2021/12/31 06:22:41;;;;;;;1999.90;999.90;;;14.00;99.90;;;;;;5010630;28;20460;-72
2021/12/31 06:25:09;;;;;;;1999.90;999.90;;;14.10;99.90;;;;;;5015067;28;20514;-74
2021/12/31 06:27:36;;;;;;;1999.90;999.90;;;14.00;99.90;;;;;;5015448;28;20456;-74
2021/12/31 06:30:03;;;;;;;1999.90;999.90;;;14.10;99.90;;;;;;5014555;28;20810;-74
2021/12/31 06:32:30;;;;;;;1999.90;999.90;;;14.00;99.90;;;;;;5015807;28;20444;-73
2021/12/31 06:34:56;;;;;;;1999.90;999.90;;;14.00;99.90;;;;;;5015523;28;20530;-72
2021/12/31 06:37:23;;;;;;;1999.90;999.90;;;14.00;99.90;;;;;;5011132;28;20506;-73
2021/12/31 06:39:53;;;;;;;1999.90;999.90;;;14.00;99.90;;;;;;5014693;28;20452;-73
2021/12/31 06:42:19;;;;;;;1999.90;999.90;;;14.00;99.90;;;;;;5015403;28;20566;-73
2021/12/31 06:44:46;;;;;;;1999.90;999.90;;;14.10;99.90;;;;;;5015896;28;20471;-74
2021/12/31 06:47:13;;;;;;;1999.90;999.90;;;14.10;99.90;;;;;;5015530;28;20503;-73
2021/12/31 06:49:41;;;;;;;1999.90;999.90;;;14.10;99.90;;;;;;5015091;28;20510;-74
2021/12/31 06:52:07;;;;;;;1999.90;999.90;;;14.10;99.90;;;;;;5010055;28;20449;-73
2021/12/31 06:54:36;;;;;;;1999.90;999.90;;;14.10;99.90;;;;;;5014930;28;20484;-73
2021/12/31 06:57:05;;;;;;;1999.90;999.90;;;14.20;99.90;;;;;;5008749;28;20447;-73
2021/12/31 06:59:31;;;;;;;1999.90;999.90;;;14.10;99.90;;;;;;5015310;28;20454;-73
2021/12/31 07:01:58;;;;;;;1999.90;999.90;;;14.10;99.90;;;;;;5014707;28;21076;-74
2021/12/31 07:04:25;;;;;;;1999.90;999.90;;;14.00;99.90;;;;;;5014671;28;21043;-74
2021/12/31 07:06:52;;;;;;;1999.90;999.90;;;14.00;99.90;;;;;;5010807;28;20452;-75
2021/12/31 07:09:18;;;;;;;1999.90;999.90;;;14.00;99.90;;;;;;5014647;28;20519;-72
2021/12/31 07:11:45;;;;;;;1999.90;999.90;;;14.10;99.90;;;;;;5003955;28;20459;-72
2021/12/31 07:14:13;;;;;;;1999.90;999.90;;;14.00;99.90;;;;;;4995450;28;20485;-73
2021/12/31 07:16:39;;;;;;;1999.90;999.90;;;14.10;99.90;;;;;;5011021;28;20452;-73
2021/12/31 07:19:06;;;;;;;1999.90;999.90;;;14.10;99.90;;;;;;5015546;28;20514;-73
2021/12/31 07:21:33;;;;;;;1999.90;999.90;;;14.10;99.90;;;;;;5012406;28;20492;-74
2021/12/31 07:23:59;;;;;;;1999.90;999.90;;;14.00;99.90;;;;;;5014316;28;20472;-73
2021/12/31 07:26:26;;;;;;;1999.90;999.90;;;13.90;99.90;;;;;;5013959;28;20464;-74
2021/12/31 07:28:53;;;;;;;1999.90;999.90;;;13.90;99.90;;;;;;5014480;28;20870;-73
2021/12/31 07:31:21;;;;;;;1999.90;999.90;;;13.90;99.90;;;;;;5014666;28;20865;-74
2021/12/31 07:33:47;;;;;;;1999.90;999.90;;;13.80;99.90;;;;;;5014531;28;20521;-75
2021/12/31 07:36:14;;;;;;;1999.90;999.90;;;13.80;99.90;;;;;;5012368;28;20460;-72
2021/12/31 07:38:47;;;;;;;1999.90;999.90;;;13.80;99.90;;;;;;5012620;28;20468;-72
2021/12/31 07:41:14;;;;;;;1999.90;999.90;;;13.80;99.90;;;;;;5011436;28;20571;-75
2021/12/31 07:43:41;;;;;;;1999.90;999.90;;;13.70;99.90;;;;;;5014319;28;20476;-73
2021/12/31 07:46:08;;;;;;;1999.90;999.90;;;13.80;99.90;;;;;;5009195;28;20453;-72
2021/12/31 07:48:36;;;;;;;1999.90;999.90;;;13.70;99.90;;;;;;5011482;28;20456;-73
2021/12/31 07:51:02;;;;;;;1999.90;999.90;;;14.00;99.90;;;;;;5013061;28;20452;-73
2021/12/31 07:53:29;;;;;;;1999.90;999.90;;;13.80;99.90;;;;;;5011569;28;20503;-75
2021/12/31 07:55:56;;;;;;;1999.90;999.90;;;13.80;99.90;;;;;;5015112;28;20496;-73
2021/12/31 07:58:24;;;;;;;1999.90;999.90;;;13.80;99.90;;;;;;5014320;28;20518;-73
2021/12/31 08:00:50;;;;;;;1999.90;999.90;;;13.80;99.90;;;;;;5013731;28;20835;-73
2021/12/31 08:03:17;;;;;;;1999.90;999.90;;;13.80;99.90;;;;;;5014267;28;20522;-74
2021/12/31 08:05:45;;;;;;;1999.90;999.90;;;13.80;99.90;;;;;;5013743;28;20448;-73
2021/12/31 08:08:12;;;;;;;1999.90;999.90;;;13.80;99.90;;;;;;5010889;28;20526;-71
2021/12/31 08:10:38;;;;;;;1999.90;999.90;;;13.70;99.90;;;;;;5012912;28;20888;-75
2021/12/31 08:13:05;;;;;;;1999.90;999.90;;;13.70;99.90;;;;;;5013172;28;20471;-73
2021/12/31 08:15:32;;;;;;;1999.90;999.90;;;13.70;99.90;;;;;;5016677;28;20460;-73
2021/12/31 08:17:59;;;;;;;1999.90;999.90;;;13.70;99.90;;;;;;5013890;28;20482;-74
2021/12/31 08:20:27;;;;;;;1999.90;999.90;;;13.70;99.90;;;;;;5014598;28;20506;-73
2021/12/31 08:22:55;;;;;;;1999.90;999.90;;;13.70;99.90;;;;;;5012062;28;21050;-74
2021/12/31 08:25:22;;;;;;;1999.90;999.90;;;13.70;99.90;;;;;;5013889;28;20542;-73
2021/12/31 08:27:48;;;;;;;1999.90;999.90;;;13.70;99.90;;;;;;5013933;28;20539;-72
2021/12/31 08:30:15;;;;;;;1999.90;999.90;;;13.70;99.90;;;;;;5013429;28;20460;-73
2021/12/31 08:32:42;;;;;;;1999.90;999.90;;;13.70;99.90;;;;;;5012227;28;20506;-73
2021/12/31 08:35:09;;;;;;;1999.90;999.90;;;13.80;99.90;;;;;;5006009;28;20457;-73
2021/12/31 08:37:36;;;;;;;1999.90;999.90;;;13.90;99.90;;;;;;5010869;28;20487;-73
2021/12/31 08:40:05;;;;;;;1999.90;999.90;;;13.90;99.90;;;;;;5008912;28;20448;-76
2021/12/31 08:42:31;;;;;;;1999.90;999.90;;;13.90;99.90;;;;;;5003962;28;22143;-73
2021/12/31 08:44:58;;;;;;;1999.90;999.90;;;14.00;99.90;;;;;;5006941;28;20483;-73
2021/12/31 08:47:25;;;;;;;1999.90;999.90;;;14.10;99.90;;;;;;5010998;28;20862;-73
2021/12/31 08:49:51;;;;;;;1999.90;999.90;;;14.10;99.90;;;;;;5010968;28;20518;-73
2021/12/31 08:52:18;;;;;;;1999.90;999.90;;;14.20;99.90;;;;;;5011322;28;20440;-73
2021/12/31 08:54:45;;;;;;;1999.90;999.90;;;14.20;99.90;;;;;;5008282;28;20996;-72
2021/12/31 08:57:13;;;;;;;1999.90;999.90;;;14.20;99.90;;;;;;5009444;28;20459;-73
2021/12/31 08:59:40;;;;;;;1999.90;999.90;;;14.20;99.90;;;;;;5012473;28;20942;-74
2021/12/31 09:02:06;;;;;;;1999.90;999.90;;;14.30;99.90;;;;;;5012244;28;20479;-74
2021/12/31 09:04:33;;;;;;;1999.90;999.90;;;14.30;99.90;;;;;;5013390;28;20551;-73
2021/12/31 09:07:00;;;;;;;1999.90;999.90;;;14.30;99.90;;;;;;5014036;28;20463;-73
2021/12/31 09:09:27;;;;;;;1999.90;999.90;;;14.20;99.90;;;;;;5013895;28;20999;-75
2021/12/31 09:11:54;;;;;;;1999.90;999.90;;;14.20;99.90;;;;;;5013470;28;20467;-74
2021/12/31 09:14:22;;;;;;;1999.90;999.90;;;14.20;99.90;;;;;;5013349;28;21060;-73
2021/12/31 09:16:49;;;;;;;1999.90;999.90;;;14.20;99.90;;;;;;5014000;28;20506;-73
2021/12/31 09:19:15;;;;;;;1999.90;999.90;;;14.10;99.90;;;;;;5011855;28;20506;-75
2021/12/31 09:21:42;;;;;;;1999.90;999.90;;;14.20;99.90;;;;;;5013708;28;20488;-73
2021/12/31 09:24:09;;;;;;;1999.90;999.90;;;14.30;99.90;;;;;;5013371;28;20476;-73
2021/12/31 09:26:36;;;;;;;1999.90;999.90;;;14.40;99.90;;;;;;5013205;28;20881;-73
2021/12/31 09:29:03;;;;;;;1999.90;999.90;;;14.40;99.90;;;;;;5013436;28;20494;-74
2021/12/31 09:31:31;;;;;;;1999.90;999.90;;;14.40;99.90;;;;;;5013018;28;20444;-73
2021/12/31 09:33:58;;;;;;;1999.90;999.90;;;14.40;99.90;;;;;;5010876;28;20550;-73
2021/12/31 09:36:24;;;;;;;1999.90;999.90;;;14.40;99.90;;;;;;5013358;28;20456;-74
2021/12/31 09:38:51;;;;;;;1999.90;999.90;;;14.40;99.90;;;;;;5013014;28;20479;-73
2021/12/31 09:41:18;;;;;;;1999.90;999.90;;;14.40;99.90;;;;;;5012440;28;20506;-73
2021/12/31 09:43:48;;;;;;;1999.90;999.90;;;14.40;99.90;;;;;;5012063;28;20460;-74
2021/12/31 09:46:15;;;;;;;1999.90;999.90;;;14.40;99.90;;;;;;5012337;28;20447;-75
2021/12/31 09:48:43;;;;;;;1999.90;999.90;;;14.40;99.90;;;;;;5011990;28;20448;-76
2021/12/31 09:51:10;;;;;;;1999.90;999.90;;;14.40;99.90;;;;;;5011814;28;21017;-75
2021/12/31 09:53:37;;;;;;;1999.90;999.90;;;14.40;99.90;;;;;;5011987;28;20476;-73
2021/12/31 09:56:04;;;;;;;1999.90;999.90;;;14.40;99.90;;;;;;5003985;28;20494;-73
2021/12/31 09:58:31;;;;;;;1999.90;999.90;;;14.40;99.90;;;;;;5011897;28;20461;-74
2021/12/31 10:01:01;;;;;;;1999.90;999.90;;;14.40;99.90;;;;;;5011075;28;20452;-71
2021/12/31 10:03:30;;;;;;;1999.90;999.90;;;14.40;99.90;;;;;;5012231;28;20570;-73
2021/12/31 10:05:59;;;;;;;1999.90;999.90;;;14.30;99.90;;;;;;5011802;28;20546;-72
2021/12/31 10:08:28;;;;;;;1999.90;999.90;;;14.40;99.90;;;;;;5012943;28;20494;-73
2021/12/31 10:11:10;;;;;;;1999.90;999.90;;;14.60;99.90;;;;;;5011270;28;21214;-74
2021/12/31 10:13:39;;;;;;;1999.90;999.90;;;14.70;99.90;;;;;;5012009;28;20484;-74
2021/12/31 10:16:06;;;;;;;1999.90;999.90;;;15.00;99.90;;;;;;5008172;28;20448;-76
2021/12/31 10:18:35;;;;;;;1999.90;999.90;;;15.20;99.90;;;;;;5012711;28;20857;-74
2021/12/31 10:21:04;;;;;;;1999.90;999.90;;;15.40;99.90;;;;;;5011692;28;20932;-74
2021/12/31 10:23:31;;;;;;;1999.90;999.90;;;15.50;99.90;;;;;;5011631;28;20923;-74
2021/12/31 10:26:08;;;;;;;1999.90;999.90;;;15.50;99.90;;;;;;5011848;28;20456;-75
2021/12/31 10:28:36;;;;;;;1999.90;999.90;;;15.70;99.90;;;;;;5012073;28;20442;-75
2021/12/31 10:31:13;;;;;;;1999.90;999.90;;;15.70;99.90;;;;;;5011587;28;20448;-75
2021/12/31 10:33:44;;;;;;;1999.90;999.90;;;15.60;99.90;;;;;;5011923;28;20475;-75
2021/12/31 10:36:35;;;;;;;1999.90;999.90;;;15.60;99.90;;;;;;5011397;28;20440;-74
2021/12/31 10:39:14;;;;;;;1999.90;999.90;;;15.60;99.90;;;;;;5012003;28;20433;-74
2021/12/31 10:41:41;;;;;;;1999.90;999.90;;;15.50;99.90;;;;;;5011103;28;20484;-73
2021/12/31 10:44:08;;;;;;;1999.90;999.90;;;15.50;99.90;;;;;;5014078;28;20513;-75
2021/12/31 10:46:34;;;;;;;1999.90;999.90;;;15.60;99.90;;;;;;5012643;28;20952;-74
2021/12/31 10:49:07;;;;;;;1999.90;999.90;;;15.50;99.90;;;;;;5014775;28;20813;-75
2021/12/31 10:51:40;;;;;;;1999.90;999.90;;;15.50;99.90;;;;;;5014237;28;20480;-74
2021/12/31 10:54:30;;;;;;;1999.90;999.90;;;15.60;99.90;;;;;;5010431;28;20534;-73
2021/12/31 10:56:57;;;;;;;1999.90;999.90;;;15.60;99.90;;;;;;4994935;28;20465;-75
2021/12/31 10:59:24;;;;;;;1999.90;999.90;;;15.60;99.90;;;;;;4995483;28;20507;-75
2021/12/31 11:01:52;;;;;;;1999.90;999.90;;;15.50;99.90;;;;;;4994915;28;20485;-75
2021/12/31 11:04:20;;;;;;;1999.90;999.90;;;15.60;99.90;;;;;;4995254;28;20469;-73
2021/12/31 11:06:49;;;;;;;1999.90;999.90;;;15.70;99.90;;;;;;4998070;28;20514;-74
2021/12/31 11:09:17;;;;;;;1999.90;999.90;;;15.90;99.90;;;;;;5014809;28;20452;-75
2021/12/31 11:11:47;;;;;;;1999.90;999.90;;;16.10;99.90;;;;;;5014532;28;20464;-74
2021/12/31 11:14:17;;;;;;;1999.90;999.90;;;16.10;99.90;;;;;;5014326;28;20488;-73
2021/12/31 11:16:43;;;;;;;1999.90;999.90;;;16.00;99.90;;;;;;5014647;28;20546;-74
2021/12/31 11:19:12;;;;;;;1999.90;999.90;;;15.90;99.90;;;;;;5014538;28;20464;-74
2021/12/31 11:21:40;;;;;;;1999.90;999.90;;;15.80;99.90;;;;;;5014053;28;20459;-74
2021/12/31 11:24:34;;;;;;;1999.90;999.90;;;15.80;99.90;;;;;;5014900;28;20468;-74
2021/12/31 11:27:31;;;;;;;1999.90;999.90;;;15.80;99.90;;;;;;5004359;28;20459;-75
2021/12/31 11:29:58;;;;;;;1999.90;999.90;;;15.80;99.90;;;;;;5001956;28;20498;-74
2021/12/31 11:32:56;;;;;;;1999.90;999.90;;;15.60;99.90;;;;;;5014048;28;20514;-74
2021/12/31 11:35:35;;;;;;;1999.90;999.90;;;15.40;99.90;;;;;;5013938;28;20475;-74
2021/12/31 11:38:03;;;;;;;1999.90;999.90;;;15.40;99.90;;;;;;5014585;28;20442;-74
2021/12/31 11:40:33;;;;;;;1999.90;999.90;;;15.30;99.90;;;;;;5014258;28;20450;-75
2021/12/31 11:43:22;;;;;;;1999.90;999.90;;;15.30;99.90;;;;;;5014043;28;20484;-74
2021/12/31 11:46:23;;;;;;;1999.90;999.90;;;15.20;99.90;;;;;;5014015;28;20929;-73
2021/12/31 11:48:54;;;;;;;1999.90;999.90;;;15.00;99.90;;;;;;5004621;28;20518;-74
2021/12/31 11:51:23;;;;;;;1999.90;999.90;;;15.10;99.90;;;;;;5013586;28;20456;-74
2021/12/31 11:54:20;;;;;;;1999.90;999.90;;;15.20;99.90;;;;;;5013546;28;20468;-74
2021/12/31 11:57:10;;;;;;;1999.90;999.90;;;15.10;99.90;;;;;;5008704;28;20456;-75
2021/12/31 11:59:56;;;;;;;1999.90;999.90;;;15.10;99.90;;;;;;5014140;28;20783;-73
2021/12/31 12:02:33;;;;;;;1999.90;999.90;;;15.10;99.90;;;;;;5013691;28;20495;-74
2021/12/31 12:05:11;;;;;;;1999.90;999.90;;;15.10;99.90;;;;;;5013051;28;21015;-75